FNF224 EGKK-EGSS
Flight info
| Callsign | FNF224 |
|---|---|
| Flight time | 0h 28m |
| Altitude | 9000 |
| Route | FRANE1M FRANE DCT DET DET2A |
| Aircraft | C25C/M-SDE2E3FGHRWXY/LB1 |
Departure
| Time | 2026-05-04 13:27 |
|---|---|
| Airport | London Gatwick Airport (EGKK) |
Arrival
| Time | 2026-05-04 13:55 |
|---|---|
| Airport | London Stansted Airport (EGSS) |
| Time | Latitude | Longitude | Altitude | Speed | Heading |
|---|---|---|---|---|---|
| 2026-05-04 12:38 | 51.15367 | -0.16336 | 195 ft | 0 kts | 354° |
| 2026-05-04 13:05 | 51.15359 | -0.16335 | 208 ft | 0 kts | 354° |
| 2026-05-04 13:05 | 51.15358 | -0.16335 | 208 ft | 0 kts | 354° |
| 2026-05-04 13:05 | 51.15357 | -0.16335 | 208 ft | 1 kts | 354° |
| 2026-05-04 13:06 | 51.15349 | -0.16334 | 204 ft | 1 kts | 354° |
| 2026-05-04 13:06 | 51.15341 | -0.16332 | 199 ft | 1 kts | 354° |
| 2026-05-04 13:06 | 51.15333 | -0.16331 | 199 ft | 1 kts | 350° |
| 2026-05-04 13:06 | 51.15324 | -0.16326 | 206 ft | 1 kts | 317° |
| 2026-05-04 13:07 | 51.15320 | -0.16314 | 204 ft | 1 kts | 283° |
| 2026-05-04 13:07 | 51.15319 | -0.16303 | 199 ft | 0 kts | 256° |
| 2026-05-04 13:14 | 51.15309 | -0.16373 | 199 ft | 11 kts | 262° |
| 2026-05-04 13:14 | 51.15318 | -0.16460 | 209 ft | 6 kts | 328° |
| 2026-05-04 13:15 | 51.15359 | -0.16492 | 199 ft | 11 kts | 302° |
| 2026-05-04 13:15 | 51.15357 | -0.16561 | 204 ft | 0 kts | 243° |
| 2026-05-04 13:15 | 51.15356 | -0.16568 | 203 ft | 7 kts | 258° |
| 2026-05-04 13:16 | 51.15335 | -0.16666 | 201 ft | 10 kts | 238° |
| 2026-05-04 13:16 | 51.15307 | -0.16763 | 199 ft | 10 kts | 253° |
| 2026-05-04 13:16 | 51.15290 | -0.16873 | 199 ft | 11 kts | 257° |
| 2026-05-04 13:16 | 51.15274 | -0.16991 | 199 ft | 11 kts | 258° |
| 2026-05-04 13:17 | 51.15260 | -0.17109 | 199 ft | 11 kts | 261° |
| 2026-05-04 13:17 | 51.15242 | -0.17231 | 203 ft | 12 kts | 259° |
| 2026-05-04 13:17 | 51.15275 | -0.17338 | 198 ft | 12 kts | 328° |
| 2026-05-04 13:17 | 51.15298 | -0.17402 | 198 ft | 5 kts | 263° |
| 2026-05-04 13:18 | 51.15289 | -0.17489 | 198 ft | 9 kts | 260° |
| 2026-05-04 13:18 | 51.15277 | -0.17590 | 198 ft | 10 kts | 261° |
| 2026-05-04 13:18 | 51.15263 | -0.17698 | 198 ft | 10 kts | 257° |
| 2026-05-04 13:18 | 51.15250 | -0.17792 | 198 ft | 8 kts | 258° |
| 2026-05-04 13:19 | 51.15235 | -0.17906 | 198 ft | 12 kts | 258° |
| 2026-05-04 13:19 | 51.15222 | -0.17998 | 200 ft | 13 kts | 256° |
| 2026-05-04 13:19 | 51.15194 | -0.18204 | 198 ft | 15 kts | 259° |
| 2026-05-04 13:19 | 51.15174 | -0.18362 | 198 ft | 14 kts | 266° |
| 2026-05-04 13:20 | 51.15158 | -0.18503 | 208 ft | 13 kts | 258° |
| 2026-05-04 13:20 | 51.15136 | -0.18651 | 198 ft | 14 kts | 255° |
| 2026-05-04 13:20 | 51.15116 | -0.18798 | 197 ft | 14 kts | 257° |
| 2026-05-04 13:20 | 51.15094 | -0.18957 | 198 ft | 15 kts | 258° |
| 2026-05-04 13:21 | 51.15073 | -0.19120 | 198 ft | 15 kts | 257° |
| 2026-05-04 13:21 | 51.15051 | -0.19283 | 198 ft | 15 kts | 258° |
| 2026-05-04 13:21 | 51.15031 | -0.19431 | 199 ft | 13 kts | 254° |
| 2026-05-04 13:21 | 51.15015 | -0.19556 | 199 ft | 12 kts | 257° |
| 2026-05-04 13:22 | 51.14989 | -0.19732 | 199 ft | 17 kts | 257° |
| 2026-05-04 13:22 | 51.14963 | -0.19921 | 198 ft | 18 kts | 257° |
| 2026-05-04 13:22 | 51.14934 | -0.20139 | 198 ft | 24 kts | 257° |
| 2026-05-04 13:22 | 51.14901 | -0.20402 | 197 ft | 24 kts | 264° |
| 2026-05-04 13:23 | 51.14869 | -0.20616 | 204 ft | 19 kts | 256° |
| 2026-05-04 13:23 | 51.14838 | -0.20821 | 203 ft | 19 kts | 257° |
| 2026-05-04 13:23 | 51.14811 | -0.21027 | 207 ft | 19 kts | 258° |
| 2026-05-04 13:23 | 51.14783 | -0.21192 | 203 ft | 13 kts | 258° |
| 2026-05-04 13:24 | 51.14752 | -0.21368 | 204 ft | 12 kts | 250° |
| 2026-05-04 13:24 | 51.14733 | -0.21396 | 198 ft | 0 kts | 187° |
| 2026-05-04 13:25 | 51.14722 | -0.21397 | 198 ft | 9 kts | 180° |
| 2026-05-04 13:25 | 51.14655 | -0.21348 | 202 ft | 16 kts | 151° |
| 2026-05-04 13:25 | 51.14555 | -0.21282 | 199 ft | 15 kts | 141° |
| 2026-05-04 13:26 | 51.14509 | -0.21153 | 203 ft | 11 kts | 78° |
| 2026-05-04 13:26 | 51.14529 | -0.21044 | 200 ft | 12 kts | 76° |
| 2026-05-04 13:26 | 51.14624 | -0.20326 | 200 ft | 122 kts | 77° |
| 2026-05-04 13:26 | 51.14876 | -0.18593 | 467 ft | 187 kts | 76° |
| 2026-05-04 13:27 | 51.15077 | -0.17184 | 781 ft | 201 kts | 76° |
| 2026-05-04 13:27 | 51.15373 | -0.15124 | 1220 ft | 172 kts | 77° |
| 2026-05-04 13:27 | 51.15612 | -0.13318 | 1335 ft | 165 kts | 78° |
| 2026-05-04 13:27 | 51.15916 | -0.10958 | 1469 ft | 164 kts | 78° |
| 2026-05-04 13:28 | 51.16162 | -0.09154 | 1484 ft | 175 kts | 77° |
| 2026-05-04 13:28 | 51.16454 | -0.07062 | 1681 ft | 206 kts | 77° |
| 2026-05-04 13:28 | 51.16660 | -0.05593 | 1795 ft | 196 kts | 77° |
| 2026-05-04 13:28 | 51.16906 | -0.03549 | 1954 ft | 186 kts | 86° |
| 2026-05-04 13:29 | 51.16864 | -0.01534 | 2256 ft | 179 kts | 91° |
| 2026-05-04 13:29 | 51.16824 | 0.00719 | 3004 ft | 233 kts | 91° |
| 2026-05-04 13:29 | 51.16768 | 0.03590 | 3795 ft | 277 kts | 91° |
| 2026-05-04 13:29 | 51.16713 | 0.06676 | 4770 ft | 282 kts | 91° |
| 2026-05-04 13:30 | 51.16654 | 0.10057 | 4693 ft | 313 kts | 91° |
| 2026-05-04 13:30 | 51.16630 | 0.13187 | 6102 ft | 269 kts | 91° |
| 2026-05-04 13:30 | 51.16616 | 0.16250 | 7691 ft | 282 kts | 91° |
| 2026-05-04 13:30 | 51.16619 | 0.19568 | 8755 ft | 317 kts | 90° |
| 2026-05-04 13:31 | 51.16615 | 0.23179 | 10007 ft | 337 kts | 92° |
| 2026-05-04 13:31 | 51.16739 | 0.26851 | 9421 ft | 328 kts | 77° |
| 2026-05-04 13:31 | 51.17732 | 0.30021 | 9036 ft | 314 kts | 51° |
| 2026-05-04 13:31 | 51.19163 | 0.32549 | 8817 ft | 302 kts | 46° |
| 2026-05-04 13:32 | 51.20641 | 0.35192 | 8745 ft | 339 kts | 48° |
| 2026-05-04 13:32 | 51.22028 | 0.38222 | 8834 ft | 339 kts | 61° |
| 2026-05-04 13:32 | 51.22971 | 0.41665 | 8813 ft | 338 kts | 71° |
| 2026-05-04 13:32 | 51.23870 | 0.45069 | 8959 ft | 327 kts | 63° |
| 2026-05-04 13:33 | 51.25003 | 0.48257 | 8944 ft | 341 kts | 57° |
| 2026-05-04 13:33 | 51.26355 | 0.51402 | 9009 ft | 333 kts | 54° |
| 2026-05-04 13:33 | 51.27785 | 0.54236 | 8991 ft | 324 kts | 46° |
| 2026-05-04 13:33 | 51.29383 | 0.56937 | 8972 ft | 351 kts | 50° |
| 2026-05-04 13:34 | 51.31169 | 0.59497 | 9030 ft | 333 kts | 29° |
| 2026-05-04 13:34 | 51.33173 | 0.60907 | 9062 ft | 310 kts | 17° |
| 2026-05-04 13:34 | 51.35218 | 0.61688 | 8998 ft | 295 kts | 9° |
| 2026-05-04 13:34 | 51.37194 | 0.62256 | 9006 ft | 284 kts | 9° |
| 2026-05-04 13:35 | 51.39095 | 0.62907 | 9004 ft | 276 kts | 11° |
| 2026-05-04 13:35 | 51.42927 | 0.64167 | 9012 ft | 285 kts | 10° |
| 2026-05-04 13:35 | 51.44886 | 0.64810 | 9011 ft | 289 kts | 10° |
| 2026-05-04 13:36 | 51.46858 | 0.65454 | 9013 ft | 291 kts | 10° |
| 2026-05-04 13:36 | 51.48853 | 0.66105 | 9017 ft | 293 kts | 10° |
| 2026-05-04 13:36 | 51.50852 | 0.66758 | 9021 ft | 294 kts | 10° |
| 2026-05-04 13:36 | 51.52834 | 0.67405 | 9023 ft | 295 kts | 10° |
| 2026-05-04 13:37 | 51.54842 | 0.68125 | 9023 ft | 295 kts | 8° |
| 2026-05-04 13:37 | 51.56853 | 0.67788 | 9014 ft | 292 kts | 342° |
| 2026-05-04 13:37 | 51.58793 | 0.66790 | 9016 ft | 293 kts | 341° |
| 2026-05-04 13:37 | 51.60772 | 0.65985 | 9024 ft | 294 kts | 347° |
| 2026-05-04 13:38 | 51.62801 | 0.65492 | 9024 ft | 295 kts | 351° |
| 2026-05-04 13:38 | 51.64834 | 0.65023 | 9023 ft | 295 kts | 349° |
| 2026-05-04 13:38 | 51.66858 | 0.64481 | 9025 ft | 295 kts | 348° |
| 2026-05-04 13:38 | 51.68880 | 0.63906 | 9022 ft | 295 kts | 348° |
| 2026-05-04 13:39 | 51.70910 | 0.63358 | 9027 ft | 295 kts | 349° |
| 2026-05-04 13:39 | 51.72936 | 0.62811 | 9027 ft | 295 kts | 349° |
| 2026-05-04 13:39 | 51.74933 | 0.62277 | 9025 ft | 295 kts | 349° |
| 2026-05-04 13:39 | 51.76960 | 0.61722 | 9023 ft | 295 kts | 349° |
| 2026-05-04 13:40 | 51.78973 | 0.61176 | 9023 ft | 288 kts | 349° |
| 2026-05-04 13:40 | 51.80892 | 0.60657 | 9018 ft | 270 kts | 349° |
| 2026-05-04 13:40 | 51.82645 | 0.59910 | 9006 ft | 254 kts | 328° |
| 2026-05-04 13:40 | 51.83904 | 0.58041 | 8914 ft | 243 kts | 310° |
| 2026-05-04 13:41 | 51.84346 | 0.57223 | 8926 ft | 236 kts | 309° |
| 2026-05-04 13:41 | 51.85353 | 0.55252 | 8827 ft | 221 kts | 307° |
| 2026-05-04 13:41 | 51.86325 | 0.53310 | 8313 ft | 223 kts | 307° |
| 2026-05-04 13:42 | 51.88249 | 0.49425 | 7435 ft | 220 kts | 307° |
| 2026-05-04 13:42 | 51.89181 | 0.47521 | 7098 ft | 215 kts | 307° |
| 2026-05-04 13:42 | 51.90072 | 0.45688 | 7024 ft | 199 kts | 307° |
| 2026-05-04 13:42 | 51.90927 | 0.43922 | 6515 ft | 208 kts | 307° |
| 2026-05-04 13:43 | 51.91838 | 0.42013 | 6034 ft | 213 kts | 307° |
| 2026-05-04 13:43 | 51.92700 | 0.40190 | 6013 ft | 195 kts | 307° |
| 2026-05-04 13:43 | 51.93348 | 0.38277 | 5645 ft | 196 kts | 277° |
| 2026-05-04 13:43 | 51.93257 | 0.36105 | 5370 ft | 193 kts | 262° |
| 2026-05-04 13:44 | 51.93076 | 0.33952 | 5060 ft | 192 kts | 261° |
| 2026-05-04 13:44 | 51.92878 | 0.31814 | 4758 ft | 192 kts | 261° |
| 2026-05-04 13:44 | 51.92678 | 0.29713 | 4453 ft | 191 kts | 261° |
| 2026-05-04 13:44 | 51.92474 | 0.27566 | 4157 ft | 191 kts | 261° |
| 2026-05-04 13:45 | 51.92271 | 0.25472 | 4064 ft | 189 kts | 261° |
| 2026-05-04 13:45 | 51.92065 | 0.23369 | 4029 ft | 191 kts | 261° |
| 2026-05-04 13:45 | 51.91861 | 0.21274 | 4025 ft | 185 kts | 261° |
| 2026-05-04 13:45 | 51.91655 | 0.19246 | 4018 ft | 180 kts | 261° |
| 2026-05-04 13:46 | 51.91458 | 0.17227 | 3744 ft | 186 kts | 261° |
| 2026-05-04 13:46 | 51.91247 | 0.15130 | 3404 ft | 189 kts | 261° |
| 2026-05-04 13:46 | 51.90896 | 0.13106 | 3111 ft | 189 kts | 236° |
| 2026-05-04 13:46 | 51.89960 | 0.11628 | 2804 ft | 189 kts | 222° |
| 2026-05-04 13:47 | 51.88976 | 0.10240 | 2601 ft | 186 kts | 221° |
| 2026-05-04 13:47 | 51.88005 | 0.08916 | 2570 ft | 181 kts | 221° |
| 2026-05-04 13:47 | 51.87050 | 0.07618 | 2550 ft | 180 kts | 221° |
| 2026-05-04 13:47 | 51.86084 | 0.06304 | 2525 ft | 183 kts | 221° |
| 2026-05-04 13:48 | 51.85105 | 0.04975 | 2527 ft | 185 kts | 221° |
| 2026-05-04 13:48 | 51.84113 | 0.03628 | 2511 ft | 187 kts | 221° |
| 2026-05-04 13:48 | 51.83116 | 0.02276 | 2515 ft | 190 kts | 221° |
| 2026-05-04 13:48 | 51.82081 | 0.00866 | 2510 ft | 196 kts | 220° |
| 2026-05-04 13:49 | 51.81000 | -0.00607 | 2511 ft | 206 kts | 221° |
| 2026-05-04 13:49 | 51.79917 | -0.02061 | 2509 ft | 198 kts | 218° |
| 2026-05-04 13:49 | 51.78656 | -0.02627 | 2526 ft | 195 kts | 172° |
| 2026-05-04 13:49 | 51.77350 | -0.02030 | 2533 ft | 194 kts | 162° |
| 2026-05-04 13:50 | 51.76079 | -0.01367 | 2530 ft | 191 kts | 159° |
| 2026-05-04 13:50 | 51.75156 | 0.00052 | 2518 ft | 187 kts | 109° |
| 2026-05-04 13:50 | 51.75194 | 0.02074 | 2528 ft | 182 kts | 73° |
| 2026-05-04 13:50 | 51.75573 | 0.04021 | 2497 ft | 182 kts | 64° |
| 2026-05-04 13:51 | 51.76443 | 0.05451 | 2498 ft | 180 kts | 38° |
| 2026-05-04 13:51 | 51.77364 | 0.06829 | 2507 ft | 182 kts | 42° |
| 2026-05-04 13:51 | 51.78304 | 0.08197 | 2501 ft | 182 kts | 41° |
| 2026-05-04 13:51 | 51.79234 | 0.09586 | 2514 ft | 183 kts | 41° |
| 2026-05-04 13:52 | 51.81144 | 0.12449 | 2200 ft | 197 kts | 41° |
| 2026-05-04 13:52 | 51.82153 | 0.13957 | 1937 ft | 194 kts | 41° |
| 2026-05-04 13:52 | 51.83052 | 0.15315 | 1686 ft | 148 kts | 41° |
| 2026-05-04 13:53 | 51.83834 | 0.16465 | 1482 ft | 163 kts | 40° |
| 2026-05-04 13:53 | 51.84677 | 0.17741 | 1251 ft | 168 kts | 42° |
| 2026-05-04 13:53 | 51.85451 | 0.18906 | 1010 ft | 131 kts | 40° |
| 2026-05-04 13:54 | 51.86762 | 0.20880 | 665 ft | 115 kts | 39° |
| 2026-05-04 13:54 | 51.87310 | 0.21698 | 504 ft | 104 kts | 40° |
| 2026-05-04 13:54 | 51.88244 | 0.23093 | 338 ft | 73 kts | 43° |
| 2026-05-04 13:55 | 51.88566 | 0.23575 | 343 ft | 56 kts | 43° |
| 2026-05-04 13:55 | 51.88893 | 0.24292 | 349 ft | 11 kts | 73° |
| 2026-05-04 13:55 | 51.88911 | 0.24390 | 348 ft | 0 kts | 72° |
| 2026-05-04 13:57 | 51.88917 | 0.24423 | 351 ft | 12 kts | 77° |
| 2026-05-04 13:58 | 51.88738 | 0.24616 | 349 ft | 22 kts | 213° |
| 2026-05-04 13:58 | 51.88553 | 0.24395 | 345 ft | 10 kts | 163° |
| 2026-05-04 13:58 | 51.88525 | 0.24446 | 347 ft | 4 kts | 93° |
| 2026-05-04 13:59 | 51.88549 | 0.24539 | 349 ft | 8 kts | 52° |